Observations for Trim Patrick St
| Time | AQI | Temp °C | Hum % | Pres Pa | CO μg/m³ | H₂S μg/m³ | NO μg/m³ | NO₂ μg/m³ | O₃ μg/m³ | SO₂ μg/m³ | PM1 μg/m³ | PM2.5 μg/m³ | PM10 μg/m³ |
|---|---|---|---|---|---|---|---|---|---|---|---|---|---|
| Wednesday 5 August 2026 | |||||||||||||
| 17:14 | 2 | 21 | 56 | 74,505 | 0 | 1.76 | 2.75 | 10.95 | 78.1 | 3.06 | 2 | 6.03 | 6.63 |
| 17:13 | 2 | 21.1 | 56 | 74,447 | 0 | 0 | 2.62 | 6.01 | 60.2 | 3.25 | 2 | 6.03 | 6.63 |
| 17:12 | 2 | 21.1 | 57 | 74,412 | 0 | 0 | 2.89 | 7.29 | 60.53 | 3.32 | 2 | 5.96 | 6.56 |
| 17:11 | 2 | 21.2 | 56 | 74,347 | 0 | 0.09 | 2.88 | 11.78 | 68.4 | 3.65 | 2 | 6.03 | 6.63 |
| 17:10 | 2 | 21.2 | 55 | 74,253 | 0 | 0 | 2.83 | 5.47 | 59.87 | 3.67 | 2 | 6.07 | 6.68 |
| 17:09 | 2 | 21.3 | 56 | 74,204 | 0 | 0 | 2.64 | 8.08 | 63.17 | 3.99 | 2 | 6.05 | 6.65 |
| 17:08 | 2 | 21.3 | 55 | 74,092 | 0 | 0 | 2.69 | 5.15 | 61.06 | 3.63 | 2 | 6.08 | 6.69 |
| 17:07 | 2 | 21.3 | 55 | 73,994 | 0 | 0 | 2.56 | 6.44 | 60.46 | 3.72 | 2 | 6.07 | 6.68 |
| 17:06 | 2 | 21.4 | 56 | 73,793 | 0 | 0.24 | 2.45 | 11 | 73.56 | 3.75 | 2 | 6.03 | 6.64 |
| 17:05 | 2 | 21.5 | 54 | 73,542 | 0 | 0 | 2.52 | 4.74 | 59.78 | 3.86 | 2 | 6.13 | 6.74 |
| 17:04 | 2 | 21.6 | 55 | 73,332 | 0 | 0 | 2.71 | 7.35 | 62.43 | 4.34 | 2 | 6.12 | 6.74 |
| 17:03 | 2 | 21.7 | 54 | 73,055 | 0 | 0 | 2.65 | 5.84 | 58.45 | 4.16 | 2 | 6.15 | 6.77 |
| 17:02 | 2 | 21.8 | 53 | 72,729 | 0 | 0 | 2.78 | 5.27 | 48.94 | 4.14 | 2 | 7.72 | 8.49 |
| 17:01 | 2 | 21.9 | 53 | 72,426 | 0 | 0 | 2.82 | 3.02 | 48.09 | 4.44 | 2 | 6.99 | 7.69 |
| 17:00 | 2 | 22 | 53 | 72,287 | 0 | 0 | 2.9 | 4.41 | 56.57 | 3.69 | 2 | 6.22 | 6.85 |
| 16:59 | 2 | 22.1 | 52 | 72,255 | 0 | 0 | 2.94 | 3.4 | 49.63 | 3.88 | 2 | 6.27 | 6.9 |
| 16:58 | 2 | 22.3 | 54 | 72,345 | 0 | 0 | 3.15 | 1.99 | 40.17 | 4.42 | 2 | 6.19 | 6.81 |
| 16:57 | 2 | 22.5 | 51 | 72,552 | 0.05 | 0 | 2.97 | 2.98 | 39.2 | 3.48 | 2 | 6.32 | 6.96 |
| 16:56 | 2 | 22.6 | 52 | 72,917 | 0.07 | 0 | 3.02 | 1.72 | 8.24 | 3.69 | 2 | 6.31 | 6.94 |
| 16:55 | 2 | 22.7 | 53 | 73,346 | 0.11 | 0 | 3.15 | 3.06 | 20.75 | 4.72 | 2 | 6.22 | 6.85 |